sensor_id;sensor_type;location;lat;lon;timestamp;pressure;altitude;pressure_sealevel;temperature
79172;BMP280;68597;53.238;-1.418;2023-04-21T00:02:17;101246.09;;;10.12
79172;BMP280;68597;53.238;-1.418;2023-04-21T00:04:42;101240.00;;;10.08
79172;BMP280;68597;53.238;-1.418;2023-04-21T00:07:10;101238.47;;;10.07
79172;BMP280;68597;53.238;-1.418;2023-04-21T00:09:36;101237.00;;;10.06
79172;BMP280;68597;53.238;-1.418;2023-04-21T00:12:02;101241.03;;;10.05
79172;BMP280;68597;53.238;-1.418;2023-04-21T00:14:28;101191.88;;;9.79
79172;BMP280;68597;53.238;-1.418;2023-04-21T00:16:54;101226.81;;;10.03
79172;BMP280;68597;53.238;-1.418;2023-04-21T00:19:20;101221.25;;;10.03
79172;BMP280;68597;53.238;-1.418;2023-04-21T00:21:45;101228.34;;;10.04
79172;BMP280;68597;53.238;-1.418;2023-04-21T00:24:14;101194.13;;;9.81
79172;BMP280;68597;53.238;-1.418;2023-04-21T00:26:39;101229.88;;;10.05
79172;BMP280;68597;53.238;-1.418;2023-04-21T00:29:06;101217.19;;;10.04
79172;BMP280;68597;53.238;-1.418;2023-04-21T00:31:32;101213.13;;;10.05
79172;BMP280;68597;53.238;-1.418;2023-04-21T00:33:58;101222.78;;;10.04
79172;BMP280;68597;53.238;-1.418;2023-04-21T00:36:24;101225.06;;;10.05
79172;BMP280;68597;53.238;-1.418;2023-04-21T00:38:50;101220.25;;;10.06
79172;BMP280;68597;53.238;-1.418;2023-04-21T00:41:18;101215.66;;;10.03
79172;BMP280;68597;53.238;-1.418;2023-04-21T00:43:59;101209.09;;;10.06
79172;BMP280;68597;53.238;-1.418;2023-04-21T00:46:25;101206.28;;;10.06
79172;BMP280;68597;53.238;-1.418;2023-04-21T00:48:50;101216.69;;;10.05
79172;BMP280;68597;53.238;-1.418;2023-04-21T00:51:16;101213.13;;;10.05
79172;BMP280;68597;53.238;-1.418;2023-04-21T00:53:42;101180.66;;;9.90
79172;BMP280;68597;53.238;-1.418;2023-04-21T00:56:09;101197.41;;;10.02
79172;BMP280;68597;53.238;-1.418;2023-04-21T00:58:38;101196.63;;;10.01
79172;BMP280;68597;53.238;-1.418;2023-04-21T01:01:06;101198.91;;;10.03
79172;BMP280;68597;53.238;-1.418;2023-04-21T01:03:32;101201.44;;;10.01
79172;BMP280;68597;53.238;-1.418;2023-04-21T01:05:58;101196.91;;;9.98
79172;BMP280;68597;53.238;-1.418;2023-04-21T01:08:24;101189.81;;;9.96
79172;BMP280;68597;53.238;-1.418;2023-04-21T01:10:50;101193.09;;;9.95
79172;BMP280;68597;53.238;-1.418;2023-04-21T01:13:18;101188.03;;;9.93
79172;BMP280;68597;53.238;-1.418;2023-04-21T01:15:45;101188.03;;;9.93
79172;BMP280;68597;53.238;-1.418;2023-04-21T01:18:11;101196.66;;;9.90
79172;BMP280;68597;53.238;-1.418;2023-04-21T01:20:39;101189.31;;;9.92
79172;BMP280;68597;53.238;-1.418;2023-04-21T01:23:06;101133.56;;;9.59
79172;BMP280;68597;53.238;-1.418;2023-04-21T01:25:32;101176.63;;;9.91
79172;BMP280;68597;53.238;-1.418;2023-04-21T01:27:58;101163.47;;;9.86
79172;BMP280;68597;53.238;-1.418;2023-04-21T01:30:24;101170.56;;;9.87
79172;BMP280;68597;53.238;-1.418;2023-04-21T01:32:50;101154.84;;;9.73
79172;BMP280;68597;53.238;-1.418;2023-04-21T01:35:16;101165.72;;;9.88
79172;BMP280;68597;53.238;-1.418;2023-04-21T01:37:42;101176.34;;;9.89
79172;BMP280;68597;53.238;-1.418;2023-04-21T01:40:10;101142.66;;;9.65
79172;BMP280;68597;53.238;-1.418;2023-04-21T01:42:39;101178.94;;;9.87
79172;BMP280;68597;53.238;-1.418;2023-04-21T01:45:06;101153.56;;;9.74
79172;BMP280;68597;53.238;-1.418;2023-04-21T01:47:32;101140.91;;;9.68
79172;BMP280;68597;53.238;-1.418;2023-04-21T01:49:58;101140.66;;;9.66
79172;BMP280;68597;53.238;-1.418;2023-04-21T01:52:24;101152.56;;;9.77
79172;BMP280;68597;53.238;-1.418;2023-04-21T01:54:52;101132.56;;;9.62
79172;BMP280;68597;53.238;-1.418;2023-04-21T01:57:19;101128.00;;;9.54
79172;BMP280;68597;53.238;-1.418;2023-04-21T01:59:45;101125.94;;;9.54
79172;BMP280;68597;53.238;-1.418;2023-04-21T02:02:11;101128.75;;;9.60
79172;BMP280;68597;53.238;-1.418;2023-04-21T02:04:37;101144.72;;;9.70
79172;BMP280;68597;53.238;-1.418;2023-04-21T02:07:05;101141.69;;;9.68
79172;BMP280;68597;53.238;-1.418;2023-04-21T02:09:31;101102.66;;;9.46
79172;BMP280;68597;53.238;-1.418;2023-04-21T02:11:57;101115.84;;;9.51
79172;BMP280;68597;53.238;-1.418;2023-04-21T02:14:25;101123.44;;;9.56
79172;BMP280;68597;53.238;-1.418;2023-04-21T02:16:50;101122.41;;;9.59
79172;BMP280;68597;53.238;-1.418;2023-04-21T02:19:16;101104.16;;;9.58
79172;BMP280;68597;53.238;-1.418;2023-04-21T02:21:42;101083.16;;;9.40
79172;BMP280;68597;53.238;-1.418;2023-04-21T02:24:08;101076.84;;;9.40
79172;BMP280;68597;53.238;-1.418;2023-04-21T02:26:33;101078.84;;;9.45
79172;BMP280;68597;53.238;-1.418;2023-04-21T02:28:59;101083.38;;;9.48
79172;BMP280;68597;53.238;-1.418;2023-04-21T02:31:26;101079.06;;;9.47
79172;BMP280;68597;53.238;-1.418;2023-04-21T02:33:52;101096.53;;;9.64
79172;BMP280;68597;53.238;-1.418;2023-04-21T02:36:18;101082.09;;;9.66
79172;BMP280;68597;53.238;-1.418;2023-04-21T02:38:44;101047.41;;;9.50
79172;BMP280;68597;53.238;-1.418;2023-04-21T02:41:10;101042.31;;;9.54
79172;BMP280;68597;53.238;-1.418;2023-04-21T02:43:35;101065.13;;;9.69
79172;BMP280;68597;53.238;-1.418;2023-04-21T02:46:05;101058.78;;;9.69
79172;BMP280;68597;53.238;-1.418;2023-04-21T02:48:34;101037.50;;;9.55
79172;BMP280;68597;53.238;-1.418;2023-04-21T02:51:00;101046.88;;;9.57
79172;BMP280;68597;53.238;-1.418;2023-04-21T02:53:25;101065.13;;;9.69
79172;BMP280;68597;53.238;-1.418;2023-04-21T02:55:52;101067.13;;;9.74
79172;BMP280;68597;53.238;-1.418;2023-04-21T02:58:18;101039.78;;;9.62
79172;BMP280;68597;53.238;-1.418;2023-04-21T03:00:43;101051.91;;;9.75
79172;BMP280;68597;53.238;-1.418;2023-04-21T03:03:09;101033.91;;;9.65
79172;BMP280;68597;53.238;-1.418;2023-04-21T03:05:36;101036.69;;;9.65
79172;BMP280;68597;53.238;-1.418;2023-04-21T03:08:02;101028.34;;;9.65
79172;BMP280;68597;53.238;-1.418;2023-04-21T03:10:28;101041.72;;;9.83
79172;BMP280;68597;53.238;-1.418;2023-04-21T03:12:54;101039.47;;;9.82
79172;BMP280;68597;53.238;-1.418;2023-04-21T03:15:20;101029.09;;;9.71
79172;BMP280;68597;53.238;-1.418;2023-04-21T03:17:46;101049.31;;;9.88
79172;BMP280;68597;53.238;-1.418;2023-04-21T03:20:12;101028.06;;;9.74
79172;BMP280;68597;53.238;-1.418;2023-04-21T03:22:39;101039.66;;;9.89
79172;BMP280;68597;53.238;-1.418;2023-04-21T03:25:05;101035.38;;;9.88
79172;BMP280;68597;53.238;-1.418;2023-04-21T03:27:31;101039.66;;;9.89
79172;BMP280;68597;53.238;-1.418;2023-04-21T03:29:56;101009.81;;;9.73
79172;BMP280;68597;53.238;-1.418;2023-04-21T03:32:22;101030.31;;;9.87
79172;BMP280;68597;53.238;-1.418;2023-04-21T03:34:48;100998.41;;;9.71
79172;BMP280;68597;53.238;-1.418;2023-04-21T03:37:14;100980.47;;;9.61
79172;BMP280;68597;53.238;-1.418;2023-04-21T03:39:41;101010.53;;;9.85
79172;BMP280;68597;53.238;-1.418;2023-04-21T03:42:07;101013.06;;;9.88
79172;BMP280;68597;53.238;-1.418;2023-04-21T03:44:33;100977.38;;;9.70
79172;BMP280;68597;53.238;-1.418;2023-04-21T03:47:00;100982.91;;;9.81
79172;BMP280;68597;53.238;-1.418;2023-04-21T03:49:26;100968.25;;;9.75
79172;BMP280;68597;53.238;-1.418;2023-04-21T03:51:52;100952.25;;;9.76
79172;BMP280;68597;53.238;-1.418;2023-04-21T03:54:18;100937.78;;;9.77
79172;BMP280;68597;53.238;-1.418;2023-04-21T03:56:45;100933.25;;;9.74
79172;BMP280;68597;53.238;-1.418;2023-04-21T03:59:10;100952.94;;;9.93
79172;BMP280;68597;53.238;-1.418;2023-04-21T04:01:36;100924.34;;;9.81
79172;BMP280;68597;53.238;-1.418;2023-04-21T04:04:02;100937.19;;;9.95
79172;BMP280;68597;53.238;-1.418;2023-04-21T04:06:28;100944.28;;;9.96
79172;BMP280;68597;53.238;-1.418;2023-04-21T04:08:57;100917.47;;;9.82
79172;BMP280;68597;53.238;-1.418;2023-04-21T04:11:22;100928.81;;;9.95
79172;BMP280;68597;53.238;-1.418;2023-04-21T04:13:50;100894.69;;;9.78
79172;BMP280;68597;53.238;-1.418;2023-04-21T04:16:15;100907.75;;;9.94
79172;BMP280;68597;53.238;-1.418;2023-04-21T04:18:41;100885.25;;;9.87
79172;BMP280;68597;53.238;-1.418;2023-04-21T04:21:07;100874.13;;;9.81
79172;BMP280;68597;53.238;-1.418;2023-04-21T04:23:33;100862.25;;;9.75
79172;BMP280;68597;53.238;-1.418;2023-04-21T04:26:01;100872.78;;;9.93
79172;BMP280;68597;53.238;-1.418;2023-04-21T04:28:27;100842.97;;;9.77
79172;BMP280;68597;53.238;-1.418;2023-04-21T04:30:54;100832.84;;;9.74
79172;BMP280;68597;53.238;-1.418;2023-04-21T04:33:20;100823.22;;;9.75
79172;BMP280;68597;53.238;-1.418;2023-04-21T04:35:45;100833.31;;;9.78
79172;BMP280;68597;53.238;-1.418;2023-04-21T04:38:11;100840.31;;;9.90
79172;BMP280;68597;53.238;-1.418;2023-04-21T04:40:37;100843.38;;;9.92
79172;BMP280;68597;53.238;-1.418;2023-04-21T04:43:02;100827.75;;;9.78
79172;BMP280;68597;53.238;-1.418;2023-04-21T04:45:28;100838.81;;;9.89
79172;BMP280;68597;53.238;-1.418;2023-04-21T04:47:55;100814.56;;;9.79
79172;BMP280;68597;53.238;-1.418;2023-04-21T04:50:21;100819.38;;;9.78
79172;BMP280;68597;53.238;-1.418;2023-04-21T04:52:47;100814.06;;;9.80
79172;BMP280;68597;53.238;-1.418;2023-04-21T04:55:13;100846.38;;;9.94
79172;BMP280;68597;53.238;-1.418;2023-04-21T04:57:38;100830.41;;;9.95
79172;BMP280;68597;53.238;-1.418;2023-04-21T05:00:05;100818.50;;;9.94
79172;BMP280;68597;53.238;-1.418;2023-04-21T05:02:31;100807.34;;;9.94
79172;BMP280;68597;53.238;-1.418;2023-04-21T05:04:58;100809.34;;;9.94
79172;BMP280;68597;53.238;-1.418;2023-04-21T05:07:24;100775.09;;;9.69
79172;BMP280;68597;53.238;-1.418;2023-04-21T05:09:50;100790.22;;;9.79
79172;BMP280;68597;53.238;-1.418;2023-04-21T05:12:15;100808.84;;;9.95
79172;BMP280;68597;53.238;-1.418;2023-04-21T05:14:42;100786.38;;;9.82
79172;BMP280;68597;53.238;-1.418;2023-04-21T05:17:08;100810.38;;;9.96
79172;BMP280;68597;53.238;-1.418;2023-04-21T05:19:34;100772.72;;;9.79
79172;BMP280;68597;53.238;-1.418;2023-04-21T05:22:01;100786.06;;;9.91
79172;BMP280;68597;53.238;-1.418;2023-04-21T05:24:27;100802.22;;;9.98
79172;BMP280;68597;53.238;-1.418;2023-04-21T05:26:53;100802.44;;;10.01
79172;BMP280;68597;53.238;-1.418;2023-04-21T05:29:19;100800.69;;;10.03
79172;BMP280;68597;53.238;-1.418;2023-04-21T05:31:45;100771.41;;;9.85
79172;BMP280;68597;53.238;-1.418;2023-04-21T05:34:10;100760.25;;;9.85
79172;BMP280;68597;53.238;-1.418;2023-04-21T05:36:39;100772.06;;;9.97
79172;BMP280;68597;53.238;-1.418;2023-04-21T05:39:07;100781.91;;;10.04
79172;BMP280;68597;53.238;-1.418;2023-04-21T05:41:33;100765.97;;;9.98
79172;BMP280;68597;53.238;-1.418;2023-04-21T05:43:59;100736.41;;;9.84
79172;BMP280;68597;53.238;-1.418;2023-04-21T05:46:25;100754.56;;;9.96
79172;BMP280;68597;53.238;-1.418;2023-04-21T05:48:50;100744.47;;;9.93
79172;BMP280;68597;53.238;-1.418;2023-04-21T05:51:16;100773.19;;;10.13
79172;BMP280;68597;53.238;-1.418;2023-04-21T05:53:44;100773.44;;;10.15
79172;BMP280;68597;53.238;-1.418;2023-04-21T05:56:11;100765.06;;;10.15
79172;BMP280;68597;53.238;-1.418;2023-04-21T05:58:38;100758.19;;;10.16
79172;BMP280;68597;53.238;-1.418;2023-04-21T06:01:04;100750.63;;;10.11
79172;BMP280;68597;53.238;-1.418;2023-04-21T06:03:30;100729.91;;;10.01
79172;BMP280;68597;53.238;-1.418;2023-04-21T06:05:57;100749.81;;;10.16
79172;BMP280;68597;53.238;-1.418;2023-04-21T06:08:22;100726.00;;;10.15
79172;BMP280;68597;53.238;-1.418;2023-04-21T06:10:48;100729.47;;;10.21
79172;BMP280;68597;53.238;-1.418;2023-04-21T06:13:15;100707.00;;;10.08
79172;BMP280;68597;53.238;-1.418;2023-04-21T06:15:41;100739.56;;;10.24
79172;BMP280;68597;53.238;-1.418;2023-04-21T06:18:07;100736.50;;;10.27
79172;BMP280;68597;53.238;-1.418;2023-04-21T06:20:33;100734.69;;;10.30
79172;BMP280;68597;53.238;-1.418;2023-04-21T06:22:59;100700.16;;;10.09
79172;BMP280;68597;53.238;-1.418;2023-04-21T06:25:24;100737.97;;;10.34
79172;BMP280;68597;53.238;-1.418;2023-04-21T06:27:51;100733.13;;;10.34
79172;BMP280;68597;53.238;-1.418;2023-04-21T06:30:19;100709.44;;;10.22
79172;BMP280;68597;53.238;-1.418;2023-04-21T06:32:44;100724.22;;;10.36
79172;BMP280;68597;53.238;-1.418;2023-04-21T06:35:10;100720.41;;;10.39
79172;BMP280;68597;53.238;-1.418;2023-04-21T06:37:37;100702.94;;;10.33
79172;BMP280;68597;53.238;-1.418;2023-04-21T06:40:03;100673.19;;;10.17
79172;BMP280;68597;53.238;-1.418;2023-04-21T06:42:29;100700.53;;;10.42
79172;BMP280;68597;53.238;-1.418;2023-04-21T06:44:55;100680.16;;;10.29
79172;BMP280;68597;53.238;-1.418;2023-04-21T06:47:22;100699.50;;;10.45
79172;BMP280;68597;53.238;-1.418;2023-04-21T06:49:48;100679.44;;;10.47
79172;BMP280;68597;53.238;-1.418;2023-04-21T06:52:13;100686.50;;;10.48
79172;BMP280;68597;53.238;-1.418;2023-04-21T06:54:39;100693.59;;;10.49
79172;BMP280;68597;53.238;-1.418;2023-04-21T06:57:05;100683.94;;;10.50
79172;BMP280;68597;53.238;-1.418;2023-04-21T06:59:31;100650.16;;;10.35
79172;BMP280;68597;53.238;-1.418;2023-04-21T07:01:57;100696.63;;;10.51
79172;BMP280;68597;53.238;-1.418;2023-04-21T07:04:24;100674.06;;;10.49
79172;BMP280;68597;53.238;-1.418;2023-04-21T07:06:50;100679.88;;;10.51
79172;BMP280;68597;53.238;-1.418;2023-04-21T07:09:16;100670.00;;;10.50
79172;BMP280;68597;53.238;-1.418;2023-04-21T07:11:42;100661.63;;;10.50
79172;BMP280;68597;53.238;-1.418;2023-04-21T07:14:07;100671.25;;;10.49
79172;BMP280;68597;53.238;-1.418;2023-04-21T07:16:33;100651.03;;;10.43
79172;BMP280;68597;53.238;-1.418;2023-04-21T07:19:00;100616.03;;;10.23
79172;BMP280;68597;53.238;-1.418;2023-04-21T07:21:27;100618.75;;;10.29
79172;BMP280;68597;53.238;-1.418;2023-04-21T07:23:53;100632.19;;;10.49
79172;BMP280;68597;53.238;-1.418;2023-04-21T07:26:19;100641.81;;;10.48
79172;BMP280;68597;53.238;-1.418;2023-04-21T07:28:45;100631.59;;;10.37
79172;BMP280;68597;53.238;-1.418;2023-04-21T07:31:10;100660.34;;;10.51
79172;BMP280;68597;53.238;-1.418;2023-04-21T07:33:36;100654.69;;;10.38
79172;BMP280;68597;53.238;-1.418;2023-04-21T07:36:02;100667.19;;;10.50
79172;BMP280;68597;53.238;-1.418;2023-04-21T07:38:30;100669.00;;;10.47
79172;BMP280;68597;53.238;-1.418;2023-04-21T07:40:59;100650.59;;;10.39
79172;BMP280;68597;53.238;-1.418;2023-04-21T07:43:25;100630.19;;;10.25
79172;BMP280;68597;53.238;-1.418;2023-04-21T07:45:51;100653.25;;;10.50
79172;BMP280;68597;53.238;-1.418;2023-04-21T07:48:17;100658.56;;;10.48
79172;BMP280;68597;53.238;-1.418;2023-04-21T07:50:43;100612.84;;;10.14
79172;BMP280;68597;53.238;-1.418;2023-04-21T07:53:08;100668.72;;;10.51
79172;BMP280;68597;53.238;-1.418;2023-04-21T07:55:36;100655.28;;;10.49
79172;BMP280;68597;53.238;-1.418;2023-04-21T07:58:02;100660.34;;;10.51
79172;BMP280;68597;53.238;-1.418;2023-04-21T08:00:28;100630.38;;;10.33
79172;BMP280;68597;53.238;-1.418;2023-04-21T08:02:54;100644.56;;;10.54
79172;BMP280;68597;53.238;-1.418;2023-04-21T08:05:20;100646.84;;;10.55
79172;BMP280;68597;53.238;-1.418;2023-04-21T08:07:46;100648.31;;;10.56
79172;BMP280;68597;53.238;-1.418;2023-04-21T08:10:11;100649.84;;;10.57
79172;BMP280;68597;53.238;-1.418;2023-04-21T08:12:39;100655.69;;;10.59
79172;BMP280;68597;53.238;-1.418;2023-04-21T08:15:06;100657.41;;;10.62
79172;BMP280;68597;53.238;-1.418;2023-04-21T08:17:32;100612.56;;;10.36
79172;BMP280;68597;53.238;-1.418;2023-04-21T08:19:58;100625.56;;;10.52
79172;BMP280;68597;53.238;-1.418;2023-04-21T08:22:24;100648.19;;;10.67
79172;BMP280;68597;53.238;-1.418;2023-04-21T08:24:50;100613.63;;;10.52
79172;BMP280;68597;53.238;-1.418;2023-04-21T08:27:16;100642.75;;;10.75
79172;BMP280;68597;53.238;-1.418;2023-04-21T08:29:43;100615.28;;;10.60
79172;BMP280;68597;53.238;-1.418;2023-04-21T08:32:09;100645.47;;;10.80
79172;BMP280;68597;53.238;-1.418;2023-04-21T08:34:35;100643.66;;;10.83
79172;BMP280;68597;53.238;-1.418;2023-04-21T08:37:01;100643.13;;;10.84
79172;BMP280;68597;53.238;-1.418;2023-04-21T08:39:27;100621.34;;;10.64
79172;BMP280;68597;53.238;-1.418;2023-04-21T08:41:54;100654.53;;;10.86
79172;BMP280;68597;53.238;-1.418;2023-04-21T08:44:21;100664.59;;;10.89
79172;BMP280;68597;53.238;-1.418;2023-04-21T08:46:49;100654.75;;;10.88
79172;BMP280;68597;53.238;-1.418;2023-04-21T08:49:18;100622.19;;;10.72
79172;BMP280;68597;53.238;-1.418;2023-04-21T08:51:45;100616.19;;;10.68
79172;BMP280;68597;53.238;-1.418;2023-04-21T08:54:11;100651.13;;;10.93
79172;BMP280;68597;53.238;-1.418;2023-04-21T08:56:38;100636.50;;;10.87
79172;BMP280;68597;53.238;-1.418;2023-04-21T08:59:04;100634.72;;;10.84
79172;BMP280;68597;53.238;-1.418;2023-04-21T09:01:29;100654.94;;;10.90
79172;BMP280;68597;53.238;-1.418;2023-04-21T09:04:15;100647.47;;;10.98
79172;BMP280;68597;53.238;-1.418;2023-04-21T09:06:41;100657.38;;;10.99
79172;BMP280;68597;53.238;-1.418;2023-04-21T09:09:09;100651.34;;;10.95
79172;BMP280;68597;53.238;-1.418;2023-04-21T09:11:34;100655.03;;;11.04
79172;BMP280;68597;53.238;-1.418;2023-04-21T09:14:00;100615.78;;;10.77
79172;BMP280;68597;53.238;-1.418;2023-04-21T09:16:30;100617.69;;;10.88
79172;BMP280;68597;53.238;-1.418;2023-04-21T09:18:55;100614.66;;;10.86
79172;BMP280;68597;53.238;-1.418;2023-04-21T09:21:27;100620.09;;;10.78
79172;BMP280;68597;53.238;-1.418;2023-04-21T09:23:53;100632.59;;;10.90
79172;BMP280;68597;53.238;-1.418;2023-04-21T09:26:20;100654.34;;;10.97
79172;BMP280;68597;53.238;-1.418;2023-04-21T09:28:47;100643.16;;;10.97
79172;BMP280;68597;53.238;-1.418;2023-04-21T09:31:14;100647.22;;;10.96
79172;BMP280;68597;53.238;-1.418;2023-04-21T09:33:44;100651.34;;;10.95
79172;BMP280;68597;53.238;-1.418;2023-04-21T09:36:17;100650.56;;;10.95
79172;BMP280;68597;53.238;-1.418;2023-04-21T09:38:48;100638.94;;;10.91
79172;BMP280;68597;53.238;-1.418;2023-04-21T09:41:16;100647.84;;;10.89
79172;BMP280;68597;53.238;-1.418;2023-04-21T09:43:41;100656.72;;;10.93
79172;BMP280;68597;53.238;-1.418;2023-04-21T09:46:08;100640.94;;;10.77
79172;BMP280;68597;53.238;-1.418;2023-04-21T09:48:34;100661.53;;;10.93
79172;BMP280;68597;53.238;-1.418;2023-04-21T09:51:01;100661.03;;;10.94
79172;BMP280;68597;53.238;-1.418;2023-04-21T09:53:27;100648.94;;;10.86
79172;BMP280;68597;53.238;-1.418;2023-04-21T09:55:57;100645.53;;;10.93
79172;BMP280;68597;53.238;-1.418;2023-04-21T09:58:27;100653.16;;;10.93
79172;BMP280;68597;53.238;-1.418;2023-04-21T10:00:58;100661.03;;;10.94
79172;BMP280;68597;53.238;-1.418;2023-04-21T10:03:26;100656.91;;;10.95
79172;BMP280;68597;53.238;-1.418;2023-04-21T10:05:52;100663.25;;;10.96
79172;BMP280;68597;53.238;-1.418;2023-04-21T10:08:21;100633.84;;;10.76
79172;BMP280;68597;53.238;-1.418;2023-04-21T10:10:47;100664.53;;;10.95
79172;BMP280;68597;53.238;-1.418;2023-04-21T10:13:15;100657.22;;;10.92
79172;BMP280;68597;53.238;-1.418;2023-04-21T10:15:41;100654.94;;;10.90
79172;BMP280;68597;53.238;-1.418;2023-04-21T10:18:12;100647.84;;;10.89
79172;BMP280;68597;53.238;-1.418;2023-04-21T10:20:54;100658.41;;;10.96
79172;BMP280;68597;53.238;-1.418;2023-04-21T10:23:29;100664.00;;;10.96
79172;BMP280;68597;53.238;-1.418;2023-04-21T10:26:01;100631.28;;;10.78
79172;BMP280;68597;53.238;-1.418;2023-04-21T10:28:43;100629.72;;;10.96
79172;BMP280;68597;53.238;-1.418;2023-04-21T10:31:17;100634.16;;;11.05
79172;BMP280;68597;53.238;-1.418;2023-04-21T10:36:46;100589.41;;;10.91
79172;BMP280;68597;53.238;-1.418;2023-04-21T10:39:25;100628.44;;;11.29
79172;BMP280;68597;53.238;-1.418;2023-04-21T10:41:54;100578.50;;;11.07
79172;BMP280;68597;53.238;-1.418;2023-04-21T10:44:21;100622.91;;;11.42
79172;BMP280;68597;53.238;-1.418;2023-04-21T10:46:48;100615.16;;;11.48
79172;BMP280;68597;53.238;-1.418;2023-04-21T10:49:20;100586.72;;;11.31
79172;BMP280;68597;53.238;-1.418;2023-04-21T10:52:02;100618.50;;;11.60
79172;BMP280;68597;53.238;-1.418;2023-04-21T10:54:29;100615.13;;;11.61
79172;BMP280;68597;53.238;-1.418;2023-04-21T10:56:57;100614.09;;;11.64
79172;BMP280;68597;53.238;-1.418;2023-04-21T10:59:25;100604.63;;;11.54
79172;BMP280;68597;53.238;-1.418;2023-04-21T11:01:51;100623.75;;;11.63
79172;BMP280;68597;53.238;-1.418;2023-04-21T11:04:18;100619.97;;;11.61
79172;BMP280;68597;53.238;-1.418;2023-04-21T11:07:04;100605.66;;;11.51
79172;BMP280;68597;53.238;-1.418;2023-04-21T11:09:30;100604.72;;;11.62
79172;BMP280;68597;53.238;-1.418;2023-04-21T11:11:57;100572.09;;;11.38
79172;BMP280;68597;53.238;-1.418;2023-04-21T11:14:24;100598.59;;;11.63
79172;BMP280;68597;53.238;-1.418;2023-04-21T11:16:50;100594.50;;;11.64
79172;BMP280;68597;53.238;-1.418;2023-04-21T11:19:16;100585.25;;;11.56
79172;BMP280;68597;53.238;-1.418;2023-04-21T11:21:42;100603.63;;;11.65
79172;BMP280;68597;53.238;-1.418;2023-04-21T11:24:10;100593.84;;;11.58
79172;BMP280;68597;53.238;-1.418;2023-04-21T11:26:36;100596.63;;;11.58
79172;BMP280;68597;53.238;-1.418;2023-04-21T11:29:04;100574.25;;;11.45
79172;BMP280;68597;53.238;-1.418;2023-04-21T11:31:31;100599.22;;;11.56
79172;BMP280;68597;53.238;-1.418;2023-04-21T11:33:57;100576.81;;;11.43
79172;BMP280;68597;53.238;-1.418;2023-04-21T11:36:23;100603.38;;;11.49
79172;BMP280;68597;53.238;-1.418;2023-04-21T11:38:49;100583.84;;;11.36
79172;BMP280;68597;53.238;-1.418;2023-04-21T11:41:20;100597.38;;;11.45
79172;BMP280;68597;53.238;-1.418;2023-04-21T11:43:46;100593.59;;;11.43
79172;BMP280;68597;53.238;-1.418;2023-04-21T11:46:16;100592.13;;;11.42
79172;BMP280;68597;53.238;-1.418;2023-04-21T11:48:44;100585.03;;;11.41
79172;BMP280;68597;53.238;-1.418;2023-04-21T11:51:14;100593.19;;;11.39
79172;BMP280;68597;53.238;-1.418;2023-04-21T11:53:40;100569.84;;;11.23
79172;BMP280;68597;53.238;-1.418;2023-04-21T11:56:06;100591.66;;;11.38
79172;BMP280;68597;53.238;-1.418;2023-04-21T11:58:33;100600.28;;;11.40
79172;BMP280;68597;53.238;-1.418;2023-04-21T12:01:06;100595.75;;;11.37
79172;BMP280;68597;53.238;-1.418;2023-04-21T12:03:32;100601.19;;;11.48
79172;BMP280;68597;53.238;-1.418;2023-04-21T12:05:59;100578.34;;;11.44
79172;BMP280;68597;53.238;-1.418;2023-04-21T12:08:28;100604.81;;;11.69
79172;BMP280;68597;53.238;-1.418;2023-04-21T12:10:54;100605.03;;;11.84
79172;BMP280;68597;53.238;-1.418;2023-04-21T12:13:21;100606.94;;;12.02
79172;BMP280;68597;53.238;-1.418;2023-04-21T12:15:48;100605.50;;;12.22
79172;BMP280;68597;53.238;-1.418;2023-04-21T12:18:14;100606.44;;;12.38
79172;BMP280;68597;53.238;-1.418;2023-04-21T12:20:48;100597.59;;;12.47
79172;BMP280;68597;53.238;-1.418;2023-04-21T12:23:15;100598.50;;;12.63
79172;BMP280;68597;53.238;-1.418;2023-04-21T12:25:41;100607.19;;;12.72
79172;BMP280;68597;53.238;-1.418;2023-04-21T12:28:08;100603.59;;;12.85
79172;BMP280;68597;53.238;-1.418;2023-04-21T12:30:34;100579.22;;;12.80
79172;BMP280;68597;53.238;-1.418;2023-04-21T12:33:00;100586.81;;;12.92
79172;BMP280;68597;53.238;-1.418;2023-04-21T12:35:26;100617.28;;;13.17
79172;BMP280;68597;53.238;-1.418;2023-04-21T12:37:52;100594.84;;;13.17
79172;BMP280;68597;53.238;-1.418;2023-04-21T12:40:20;100564.53;;;13.07
79172;BMP280;68597;53.238;-1.418;2023-04-21T12:42:45;100570.94;;;13.16
79172;BMP280;68597;53.238;-1.418;2023-04-21T12:45:12;100581.44;;;13.23
79172;BMP280;68597;53.238;-1.418;2023-04-21T12:47:38;100598.09;;;13.49
79172;BMP280;68597;53.238;-1.418;2023-04-21T12:50:04;100600.81;;;13.62
79172;BMP280;68597;53.238;-1.418;2023-04-21T12:52:30;100562.13;;;13.40
79172;BMP280;68597;53.238;-1.418;2023-04-21T12:54:56;100599.38;;;13.76
79172;BMP280;68597;53.238;-1.418;2023-04-21T12:57:24;100574.50;;;13.73
79172;BMP280;68597;53.238;-1.418;2023-04-21T12:59:51;100575.81;;;13.87
79172;BMP280;68597;53.238;-1.418;2023-04-21T13:02:17;100571.53;;;13.93
79172;BMP280;68597;53.238;-1.418;2023-04-21T13:04:43;100591.31;;;14.23
79172;BMP280;68597;53.238;-1.418;2023-04-21T13:07:08;100570.56;;;14.42
79172;BMP280;68597;53.238;-1.418;2023-04-21T13:09:34;100588.03;;;14.78
79172;BMP280;68597;53.238;-1.418;2023-04-21T13:12:00;100571.34;;;14.65
79172;BMP280;68597;53.238;-1.418;2023-04-21T13:14:28;100565.16;;;14.59
79172;BMP280;68597;53.238;-1.418;2023-04-21T13:16:54;100584.28;;;14.83
79172;BMP280;68597;53.238;-1.418;2023-04-21T13:19:19;100590.28;;;14.95
79172;BMP280;68597;53.238;-1.418;2023-04-21T13:21:46;100567.78;;;14.87
79172;BMP280;68597;53.238;-1.418;2023-04-21T13:24:12;100581.66;;;15.00
79172;BMP280;68597;53.238;-1.418;2023-04-21T13:26:39;100560.66;;;14.71
79172;BMP280;68597;53.238;-1.418;2023-04-21T13:29:06;100579.44;;;14.68
79172;BMP280;68597;53.238;-1.418;2023-04-21T13:31:33;100555.75;;;14.34
79172;BMP280;68597;53.238;-1.418;2023-04-21T13:34:00;100572.47;;;14.39
79172;BMP280;68597;53.238;-1.418;2023-04-21T13:36:26;100563.25;;;14.31
79172;BMP280;68597;53.238;-1.418;2023-04-21T13:38:52;100581.22;;;14.36
79172;BMP280;68597;53.238;-1.418;2023-04-21T13:41:18;100576.75;;;14.33
79172;BMP280;68597;53.238;-1.418;2023-04-21T13:43:44;100561.72;;;14.22
79172;BMP280;68597;53.238;-1.418;2023-04-21T13:46:10;100538.88;;;14.03
79172;BMP280;68597;53.238;-1.418;2023-04-21T13:48:37;100546.72;;;14.12
79172;BMP280;68597;53.238;-1.418;2023-04-21T13:51:04;100555.00;;;14.26